MiSS Doris — WDF9499 — position and weather

sailwx.info

Track history (hours):
 
Tides and Currents Weather Stations Pressure Air Temp Water Temp Dewpoint Dewpoint Depression Visibility Wind Speed Wind Dir Waves Ship Positions

MiSS Doris

Owner: Marquette Transportation Co. LLC, Paducah, KY. More information available from US FCC via Universal Licensing System and Coast Guard Vessel Documentation Center.

Last reported at 2018-May-15 14:20 UTC. Time now 2018-May-21 09:16 UTC.
Position N 38°44' W 090°09'.

Length 34 m; draft 3 m.

Type: Towing. MMSI: 367505770.

Date/timePositionNaut miles runAvg speedWind from/ knotsBaromVisibWave heightAir tempDewpointWater temp
2018-May-15 14:20N 38°44' W 090°09'1 1.6
2018-May-15 14:00N 38°45' W 090°09'1 2.3
2018-May-15 13:30N 38°46' W 090°08'2 3.3
2018-May-15 13:00N 38°47' W 090°07'3 6.5
2018-May-15 12:30N 38°50' W 090°06'3 5.4
2018-May-15 12:00N 38°52' W 090°09'0 0.3
2018-May-15 11:30N 38°52' W 090°09'1 2.7
2018-May-15 11:00N 38°53' W 090°11'3 5.6
2018-May-15 10:30N 38°55' W 090°13'0 0.2
2018-May-15 10:00N 38°55' W 090°13'0 0.0
2018-May-15 09:30N 38°55' W 090°13'0 0.0
2018-May-15 09:00N 38°55' W 090°13'0 0.0
2018-May-15 08:30N 38°55' W 090°13'0 0.2
2018-May-15 08:00N 38°55' W 090°13'3 6.0
2018-May-15 07:30N 38°55' W 090°17'3 6.4
2018-May-15 07:00N 38°57' W 090°21'3 5.8
2018-May-15 06:30N 38°58' W 090°24'3 5.9
2018-May-15 06:00N 38°58' W 090°28'2 4.0
2018-May-15 05:30N 38°57' W 090°30'2 3.5
2018-May-15 05:00N 38°58' W 090°33'2 4.2
2018-May-15 04:30N 38°60' W 090°34'2 4.1
2018-May-15 04:00N 39°02' W 090°34'2 3.5
2018-May-15 03:30N 39°03' W 090°35'2 3.4
2018-May-15 03:00N 39°05' W 090°36'2 4.2
2018-May-15 02:30N 39°07' W 090°36'2 1.3
2018-May-15 01:18N 39°08' W 090°37'0 0.0
2018-May-15 00:57N 39°08' W 090°37'0 0.0
2018-May-15 00:30N 39°08' W 090°37'0 0.0
2018-May-15 00:00N 39°08' W 090°37'0 0.0
2018-May-14 23:30N 39°08' W 090°37'0 0.0
2018-May-14 23:00N 39°08' W 090°37'0 0.1
2018-May-14 22:23N 39°09' W 090°37'0 0.5
2018-May-14 21:59N 39°09' W 090°37'0 0.1
2018-May-14 21:21N 39°09' W 090°37'0 0.0
2018-May-14 21:00N 39°09' W 090°37'0 0.0
2018-May-14 20:30N 39°09' W 090°37'0 0.1
2018-May-14 20:00N 39°09' W 090°37'0 0.1
2018-May-14 19:21N 39°09' W 090°37'0 0.3
2018-May-14 19:00N 39°09' W 090°37'0 0.0
2018-May-14 15:33N 39°09' W 090°37'0 0.2
2018-May-14 15:30N 39°09' W 090°37'1 1.7
2018-May-14 14:45N 39°10' W 090°37'1 4.1
2018-May-14 14:31N 39°11' W 090°36'  
2018-May-06 11:56N 39°16' W 090°37'2 4.2
2018-May-06 11:30N 39°14' W 090°36'2 4.2
2018-May-06 11:00N 39°12' W 090°35'2 4.2
2018-May-06 10:30N 39°10' W 090°37'2 4.2
2018-May-06 10:00N 39°08' W 090°37'2 4.2
2018-May-06 09:30N 39°06' W 090°36'2 4.3
2018-May-06 09:00N 39°04' W 090°35'2 4.0
2018-May-06 08:30N 39°02' W 090°35'2 4.6
2018-May-06 08:00N 38°60' W 090°34'2 4.6
2018-May-06 07:30N 38°58' W 090°33'2 3.9
2018-May-06 07:00N 38°58' W 090°30'2 4.1
2018-May-06 06:30N 38°58' W 090°27'2 3.3
2018-May-06 06:01N 38°58' W 090°25'1 2.9
2018-May-06 05:30N 38°58' W 090°23'2 3.2
2018-May-06 05:00N 38°57' W 090°22'2 3.2
2018-May-06 04:31N 38°56' W 090°20'2 3.2
2018-May-06 04:00N 38°55' W 090°18'2 3.0
2018-May-06 03:30N 38°55' W 090°16'1 3.0
2018-May-06 03:00N 38°55' W 090°14'1 2.0
2018-May-06 02:30N 38°54' W 090°13'2 3.3
2018-May-06 02:00N 38°53' W 090°12'2 3.5
2018-May-06 01:30N 38°52' W 090°10'1 2.8
2018-May-06 01:00N 38°52' W 090°08'2 3.5
2018-May-06 00:30N 38°50' W 090°06'0 0.9
2018-May-06 00:00N 38°50' W 090°06'0 0.0
2018-May-05 23:26N 38°50' W 090°06'0 0.0
2018-May-05 23:00N 38°50' W 090°06'1 1.9
2018-May-05 22:30N 38°51' W 090°07'0 0.0
2018-May-05 22:00N 38°51' W 090°07'0 0.1
2018-May-05 21:30N 38°51' W 090°07'1 1.0
2018-May-05 21:00N 38°51' W 090°07'0 0.0
2018-May-05 20:29N 38°51' W 090°07'0 0.0
2018-May-05 20:00N 38°51' W 090°07'0 0.0
2018-May-05 19:29N 38°51' W 090°07'0 0.0
2018-May-05 19:00N 38°51' W 090°07'0 0.0
2018-May-05 18:30N 38°51' W 090°07'  
Track history (hours):
 
Tides and Currents Weather Stations Pressure Air Temp Water Temp Dewpoint Dewpoint Depression Visibility Wind Speed Wind Dir Waves Ship Positions

MiSS Doris

Owner: Marquette Transportation Co. LLC, Paducah, KY. More information available from US FCC via Universal Licensing System and Coast Guard Vessel Documentation Center.

Last reported at 2018-May-15 14:20 UTC. Time now 2018-May-21 09:16 UTC.
Position N 38°44' W 090°09'.

Length 34 m; draft 3 m.

Type: Towing. MMSI: 367505770.

Date/timePositionNaut miles runAvg speedWind from/ knotsBaromVisibWave heightAir tempDewpointWater temp
2018-May-15 14:20N 38°44' W 090°09'1 1.6
2018-May-15 14:00N 38°45' W 090°09'1 2.3
2018-May-15 13:30N 38°46' W 090°08'2 3.3
2018-May-15 13:00N 38°47' W 090°07'3 6.5
2018-May-15 12:30N 38°50' W 090°06'3 5.4
2018-May-15 12:00N 38°52' W 090°09'0 0.3
2018-May-15 11:30N 38°52' W 090°09'1 2.7
2018-May-15 11:00N 38°53' W 090°11'3 5.6
2018-May-15 10:30N 38°55' W 090°13'0 0.2
2018-May-15 10:00N 38°55' W 090°13'0 0.0
2018-May-15 09:30N 38°55' W 090°13'0 0.0
2018-May-15 09:00N 38°55' W 090°13'0 0.0
2018-May-15 08:30N 38°55' W 090°13'0 0.2
2018-May-15 08:00N 38°55' W 090°13'3 6.0
2018-May-15 07:30N 38°55' W 090°17'3 6.4
2018-May-15 07:00N 38°57' W 090°21'3 5.8
2018-May-15 06:30N 38°58' W 090°24'3 5.9
2018-May-15 06:00N 38°58' W 090°28'2 4.0
2018-May-15 05:30N 38°57' W 090°30'2 3.5
2018-May-15 05:00N 38°58' W 090°33'2 4.2
2018-May-15 04:30N 38°60' W 090°34'2 4.1
2018-May-15 04:00N 39°02' W 090°34'2 3.5
2018-May-15 03:30N 39°03' W 090°35'2 3.4
2018-May-15 03:00N 39°05' W 090°36'2 4.2
2018-May-15 02:30N 39°07' W 090°36'2 1.3
2018-May-15 01:18N 39°08' W 090°37'0 0.0
2018-May-15 00:57N 39°08' W 090°37'0 0.0
2018-May-15 00:30N 39°08' W 090°37'0 0.0
2018-May-15 00:00N 39°08' W 090°37'0 0.0
2018-May-14 23:30N 39°08' W 090°37'0 0.0
2018-May-14 23:00N 39°08' W 090°37'0 0.1
2018-May-14 22:23N 39°09' W 090°37'0 0.5
2018-May-14 21:59N 39°09' W 090°37'0 0.1
2018-May-14 21:21N 39°09' W 090°37'0 0.0
2018-May-14 21:00N 39°09' W 090°37'0 0.0
2018-May-14 20:30N 39°09' W 090°37'0 0.1
2018-May-14 20:00N 39°09' W 090°37'0 0.1
2018-May-14 19:21N 39°09' W 090°37'0 0.3
2018-May-14 19:00N 39°09' W 090°37'0 0.0
2018-May-14 15:33N 39°09' W 090°37'0 0.2
2018-May-14 15:30N 39°09' W 090°37'1 1.7
2018-May-14 14:45N 39°10' W 090°37'1 4.1
2018-May-14 14:31N 39°11' W 090°36'  
2018-May-06 11:56N 39°16' W 090°37'2 4.2
2018-May-06 11:30N 39°14' W 090°36'2 4.2
2018-May-06 11:00N 39°12' W 090°35'2 4.2
2018-May-06 10:30N 39°10' W 090°37'2 4.2
2018-May-06 10:00N 39°08' W 090°37'2 4.2
2018-May-06 09:30N 39°06' W 090°36'2 4.3
2018-May-06 09:00N 39°04' W 090°35'2 4.0
2018-May-06 08:30N 39°02' W 090°35'2 4.6
2018-May-06 08:00N 38°60' W 090°34'2 4.6
2018-May-06 07:30N 38°58' W 090°33'2 3.9
2018-May-06 07:00N 38°58' W 090°30'2 4.1
2018-May-06 06:30N 38°58' W 090°27'2 3.3
2018-May-06 06:01N 38°58' W 090°25'1 2.9
2018-May-06 05:30N 38°58' W 090°23'2 3.2
2018-May-06 05:00N 38°57' W 090°22'2 3.2
2018-May-06 04:31N 38°56' W 090°20'2 3.2
2018-May-06 04:00N 38°55' W 090°18'2 3.0
2018-May-06 03:30N 38°55' W 090°16'1 3.0
2018-May-06 03:00N 38°55' W 090°14'1 2.0
2018-May-06 02:30N 38°54' W 090°13'2 3.3
2018-May-06 02:00N 38°53' W 090°12'2 3.5
2018-May-06 01:30N 38°52' W 090°10'1 2.8
2018-May-06 01:00N 38°52' W 090°08'2 3.5
2018-May-06 00:30N 38°50' W 090°06'0 0.9
2018-May-06 00:00N 38°50' W 090°06'0 0.0
2018-May-05 23:26N 38°50' W 090°06'0 0.0
2018-May-05 23:00N 38°50' W 090°06'1 1.9
2018-May-05 22:30N 38°51' W 090°07'0 0.0
2018-May-05 22:00N 38°51' W 090°07'0 0.1
2018-May-05 21:30N 38°51' W 090°07'1 1.0
2018-May-05 21:00N 38°51' W 090°07'0 0.0
2018-May-05 20:29N 38°51' W 090°07'0 0.0
2018-May-05 20:00N 38°51' W 090°07'0 0.0
2018-May-05 19:29N 38°51' W 090°07'0 0.0
2018-May-05 19:00N 38°51' W 090°07'0 0.0
2018-May-05 18:30N 38°51' W 090°07'  

Dump ship's entire track history